createdAt,value
2016-07-16T00:00:53.149Z,0
2016-07-16T00:01:53.156Z,0
2016-07-16T00:02:54.028Z,0
2016-07-16T00:03:54.740Z,0
2016-07-16T00:04:53.458Z,0
2016-07-16T00:05:52.543Z,0
2016-07-16T00:06:54.008Z,0
2016-07-16T00:07:53.358Z,0
2016-07-16T00:08:54.088Z,0
2016-07-16T00:09:54.067Z,0
2016-07-16T00:10:53.299Z,0
2016-07-16T00:11:53.186Z,0
2016-07-16T00:12:53.942Z,0
2016-07-16T00:13:53.414Z,0
2016-07-16T00:14:53.208Z,0
2016-07-16T00:15:54.867Z,0
2016-07-16T00:16:54.045Z,0
2016-07-16T00:17:54.112Z,0
2016-07-16T00:18:54.137Z,0
2016-07-16T00:19:54.182Z,0
2016-07-16T00:20:54.731Z,0
2016-07-16T00:21:54.087Z,0
2016-07-16T00:22:53.239Z,0
2016-07-16T00:23:53.351Z,0
2016-07-16T00:24:55.034Z,0
2016-07-16T00:25:53.254Z,0
2016-07-16T00:26:52.656Z,0
2016-07-16T00:27:53.402Z,0
2016-07-16T00:28:54.229Z,0
2016-07-16T00:29:53.306Z,0
2016-07-16T00:30:54.119Z,0
2016-07-16T00:31:54.107Z,0
2016-07-16T00:32:54.196Z,0
2016-07-16T00:33:53.338Z,0
2016-07-16T00:34:54.891Z,0
2016-07-16T00:35:53.339Z,0
2016-07-16T00:36:53.322Z,0
2016-07-16T00:37:54.204Z,0
2016-07-16T00:38:54.029Z,0
2016-07-16T00:39:53.363Z,0
2016-07-16T00:40:54.832Z,0
2016-07-16T00:41:54.142Z,0
2016-07-16T00:42:53.459Z,0
2016-07-16T00:43:53.558Z,0
2016-07-16T00:44:52.674Z,0
2016-07-16T00:45:54.048Z,0
2016-07-16T00:46:55.011Z,0
2016-07-16T00:47:53.349Z,0
2016-07-16T00:48:54.083Z,0
2016-07-16T00:49:54.205Z,0
2016-07-16T00:50:52.811Z,0
2016-07-16T00:51:54.265Z,0
2016-07-16T00:52:53.550Z,0
2016-07-16T00:53:54.182Z,0
2016-07-16T00:54:53.379Z,0
2016-07-16T00:55:55.066Z,0
2016-07-16T00:56:54.126Z,0
2016-07-16T00:57:54.943Z,0
2016-07-16T00:58:54.963Z,0
2016-07-16T00:59:52.694Z,0
2016-07-16T01:00:53.465Z,0
2016-07-16T01:01:54.934Z,0
2016-07-16T01:02:54.328Z,0
2016-07-16T01:03:53.511Z,0
2016-07-16T01:04:53.464Z,0
2016-07-16T01:05:53.768Z,0
2016-07-16T01:06:53.444Z,0
2016-07-16T01:07:53.022Z,0
2016-07-16T01:08:52.743Z,0
2016-07-16T01:09:54.317Z,0
2016-07-16T01:10:53.537Z,0
2016-07-16T01:11:54.183Z,0
2016-07-16T01:12:53.481Z,0
2016-07-16T01:13:54.964Z,0
2016-07-16T01:14:54.287Z,0
2016-07-16T01:15:53.703Z,0
2016-07-16T01:16:52.917Z,0
2016-07-16T01:17:54.303Z,0
2016-07-16T01:18:54.228Z,0
2016-07-16T01:19:53.493Z,0
2016-07-16T01:20:54.219Z,0
2016-07-16T01:21:54.375Z,0
2016-07-16T01:22:54.313Z,0
2016-07-16T01:23:53.632Z,0
2016-07-16T01:24:53.668Z,0
2016-07-16T01:25:54.507Z,0
2016-07-16T01:26:53.650Z,0
2016-07-16T01:27:52.872Z,0
2016-07-16T01:28:53.781Z,0
2016-07-16T01:29:54.372Z,0
2016-07-16T01:30:54.366Z,0
2016-07-16T01:31:53.678Z,0
2016-07-16T01:32:55.159Z,0
2016-07-16T01:33:53.810Z,0
2016-07-16T01:34:54.493Z,0
2016-07-16T01:35:53.570Z,0
2016-07-16T01:36:55.115Z,0
2016-07-16T01:37:53.638Z,0
2016-07-16T01:38:54.475Z,0
2016-07-16T01:39:55.014Z,0
2016-07-16T01:40:55.130Z,0
2016-07-16T01:41:54.410Z,0
2016-07-16T01:42:54.381Z,0
2016-07-16T01:43:54.492Z,0
2016-07-16T01:44:53.712Z,0
2016-07-16T01:45:54.462Z,0
2016-07-16T01:46:53.702Z,0
2016-07-16T01:47:54.377Z,0
2016-07-16T01:48:52.924Z,0
2016-07-16T01:49:54.457Z,0
2016-07-16T01:50:54.484Z,0
2016-07-16T01:51:53.732Z,0
2016-07-16T01:52:53.655Z,0
2016-07-16T01:53:54.540Z,0
2016-07-16T01:54:54.486Z,0
2016-07-16T01:55:54.579Z,0
2016-07-16T01:56:55.126Z,0
2016-07-16T01:57:54.547Z,0
2016-07-16T01:58:53.853Z,0
2016-07-16T01:59:53.788Z,0
2016-07-16T02:00:54.468Z,0
2016-07-16T02:01:54.474Z,0
2016-07-16T02:02:54.209Z,0
2016-07-16T02:03:53.760Z,0
2016-07-16T02:04:53.048Z,0
2016-07-16T02:05:53.705Z,0
2016-07-16T02:06:53.037Z,0
2016-07-16T02:07:55.219Z,0
2016-07-16T02:08:53.720Z,0
2016-07-16T02:09:54.575Z,0
2016-07-16T02:10:54.593Z,0
2016-07-16T02:11:53.110Z,0
2016-07-16T02:12:53.813Z,0
2016-07-16T02:13:54.573Z,0
2016-07-16T02:14:53.785Z,0
2016-07-16T02:15:54.475Z,0
2016-07-16T02:16:53.759Z,0
2016-07-16T02:17:53.923Z,0
2016-07-16T02:18:53.805Z,0
2016-07-16T02:19:55.232Z,0
2016-07-16T02:20:54.581Z,0
2016-07-16T02:21:54.662Z,0
2016-07-16T02:22:55.413Z,0
2016-07-16T02:23:54.663Z,0
2016-07-16T02:24:53.088Z,0
2016-07-16T02:25:54.525Z,0
2016-07-16T02:26:54.551Z,0
2016-07-16T02:27:53.893Z,0
2016-07-16T02:28:54.523Z,0
2016-07-16T02:29:55.290Z,0
2016-07-16T02:30:53.889Z,0
2016-07-16T02:31:53.208Z,0
2016-07-16T02:32:54.626Z,0
2016-07-16T02:33:54.625Z,0
2016-07-16T02:34:53.185Z,0
2016-07-16T02:35:53.844Z,0
2016-07-16T02:36:53.139Z,0
2016-07-16T02:37:53.862Z,0
2016-07-16T02:38:53.860Z,0
2016-07-16T02:39:54.568Z,0
2016-07-16T02:40:53.163Z,0
2016-07-16T02:41:54.582Z,0
2016-07-16T02:42:54.585Z,0
2016-07-16T02:43:53.891Z,0
2016-07-16T02:44:53.939Z,0
2016-07-16T02:45:54.624Z,0
2016-07-16T02:46:55.311Z,0
2016-07-16T02:47:54.608Z,0
2016-07-16T02:48:55.327Z,0
2016-07-16T02:49:53.202Z,0
2016-07-16T02:50:55.331Z,0
2016-07-16T02:51:54.638Z,0
2016-07-16T02:52:53.932Z,0
2016-07-16T02:53:54.639Z,0
2016-07-16T02:54:53.227Z,0
2016-07-16T02:55:53.993Z,0
2016-07-16T02:56:53.953Z,0
2016-07-16T02:57:55.365Z,0
2016-07-16T02:58:54.664Z,0
2016-07-16T02:59:54.673Z,0
2016-07-16T03:00:53.966Z,0
2016-07-16T03:01:55.386Z,0
2016-07-16T03:02:53.969Z,0
2016-07-16T03:03:55.398Z,0
2016-07-16T03:04:53.984Z,0
2016-07-16T03:05:55.408Z,0
2016-07-16T03:06:53.989Z,0
2016-07-16T03:07:54.006Z,0
2016-07-16T03:08:54.059Z,0
2016-07-16T03:09:55.449Z,0
2016-07-16T03:10:55.530Z,0
2016-07-16T03:11:53.315Z,0
2016-07-16T03:12:54.020Z,0
2016-07-16T03:13:53.321Z,0
2016-07-16T03:14:54.030Z,0
2016-07-16T03:15:55.468Z,0
2016-07-16T03:16:54.748Z,0
2016-07-16T03:17:53.344Z,0
2016-07-16T03:18:54.775Z,0
2016-07-16T03:19:54.051Z,0
2016-07-16T03:20:54.769Z,0
2016-07-16T03:21:53.355Z,0
2016-07-16T03:22:55.506Z,0
2016-07-16T03:23:54.070Z,0
2016-07-16T03:24:54.143Z,0
2016-07-16T03:25:54.082Z,0
2016-07-16T03:26:54.973Z,0
2016-07-16T03:27:54.251Z,0
2016-07-16T03:28:54.196Z,0
2016-07-16T03:29:54.862Z,0
2016-07-16T03:30:53.526Z,0
2016-07-16T03:31:55.591Z,0
2016-07-16T03:32:55.545Z,0
2016-07-16T03:33:54.825Z,0
2016-07-16T03:34:54.307Z,0
2016-07-16T03:35:54.848Z,0
2016-07-16T03:36:54.133Z,0
2016-07-16T03:37:54.962Z,0
2016-07-16T03:38:54.902Z,0
2016-07-16T03:39:55.680Z,0
2016-07-16T03:40:53.581Z,0
2016-07-16T03:41:54.892Z,0
2016-07-16T03:42:55.688Z,0
2016-07-16T03:43:54.914Z,0
2016-07-16T03:44:55.106Z,0
2016-07-16T03:45:55.059Z,0
2016-07-16T03:46:55.026Z,0
2016-07-16T03:47:54.261Z,0
2016-07-16T03:48:55.764Z,0
2016-07-16T03:49:55.002Z,0
2016-07-16T03:50:53.534Z,0
2016-07-16T03:51:53.593Z,0
2016-07-16T03:52:54.982Z,0
2016-07-16T03:53:54.356Z,0
2016-07-16T03:54:54.209Z,0
2016-07-16T03:55:55.126Z,0
2016-07-16T03:56:55.005Z,0
2016-07-16T03:57:53.552Z,0
2016-07-16T03:58:54.945Z,0
2016-07-16T03:59:53.544Z,0
2016-07-16T04:00:54.241Z,0
2016-07-16T04:01:54.514Z,0
2016-07-16T04:02:53.556Z,0
2016-07-16T04:03:54.398Z,0
2016-07-16T04:04:52.853Z,0
2016-07-16T04:05:54.427Z,0
2016-07-16T04:06:53.568Z,0
2016-07-16T04:07:55.045Z,0
2016-07-16T04:08:55.053Z,0
2016-07-16T04:09:55.713Z,0
2016-07-16T04:10:55.767Z,0
2016-07-16T04:11:54.300Z,0
2016-07-16T04:12:53.835Z,0
2016-07-16T04:13:55.162Z,0
2016-07-16T04:14:54.338Z,0
2016-07-16T04:15:53.619Z,0
2016-07-16T04:16:54.325Z,0
2016-07-16T04:17:54.332Z,0
2016-07-16T04:18:55.054Z,0
2016-07-16T04:19:54.339Z,0
2016-07-16T04:20:55.138Z,0
2016-07-16T04:21:55.126Z,0
2016-07-16T04:22:54.452Z,0
2016-07-16T04:23:54.372Z,0
2016-07-16T04:24:54.373Z,0
2016-07-16T04:25:53.669Z,0
2016-07-16T04:26:55.083Z,0
2016-07-16T04:27:53.699Z,0
2016-07-16T04:28:54.391Z,0
2016-07-16T04:29:54.390Z,0
2016-07-16T04:30:53.704Z,0
2016-07-16T04:31:54.412Z,0
2016-07-16T04:32:54.410Z,0
2016-07-16T04:33:55.126Z,0
2016-07-16T04:34:55.177Z,0
2016-07-16T04:35:54.420Z,0
2016-07-16T04:36:54.480Z,0
2016-07-16T04:37:55.144Z,0
2016-07-16T04:38:55.875Z,0
2016-07-16T04:39:55.153Z,5
2016-07-16T04:40:55.162Z,0
2016-07-16T04:41:54.456Z,0
2016-07-16T04:42:53.895Z,0
2016-07-16T04:43:55.170Z,0
2016-07-16T04:44:53.765Z,0
2016-07-16T04:45:53.767Z,0
2016-07-16T04:46:56.046Z,0
2016-07-16T04:47:53.135Z,5
2016-07-16T04:48:54.494Z,5
2016-07-16T04:49:53.080Z,5
2016-07-16T04:50:54.542Z,5
2016-07-16T04:51:55.254Z,5
2016-07-16T04:52:54.507Z,5
2016-07-16T04:53:54.527Z,5
2016-07-16T04:54:54.525Z,5
2016-07-16T04:55:53.820Z,5
2016-07-16T04:56:54.535Z,5
2016-07-16T04:57:54.538Z,5
2016-07-16T04:58:53.887Z,5
2016-07-16T04:59:54.547Z,5
2016-07-16T05:00:55.269Z,5
2016-07-16T05:01:53.141Z,5
2016-07-16T05:02:55.263Z,5
2016-07-16T05:03:54.572Z,5
2016-07-16T05:04:55.984Z,5
2016-07-16T05:05:55.374Z,5
2016-07-16T05:06:53.878Z,5
2016-07-16T05:07:53.879Z,5
2016-07-16T05:09:25.840Z,5
2016-07-16T05:09:56.034Z,5
2016-07-16T05:10:54.644Z,5
2016-07-16T05:11:55.817Z,5
2016-07-16T05:12:53.198Z,5
2016-07-16T05:13:53.964Z,5
2016-07-16T05:14:53.207Z,5
2016-07-16T05:15:55.385Z,5
2016-07-16T05:16:54.634Z,10
2016-07-16T05:17:55.350Z,10
2016-07-16T05:18:55.353Z,10
2016-07-16T05:19:54.653Z,10
2016-07-16T05:20:56.458Z,10
2016-07-16T05:21:54.710Z,10
2016-07-16T05:22:54.666Z,15
2016-07-16T05:23:55.370Z,15
2016-07-16T05:24:54.079Z,15
2016-07-16T05:25:53.981Z,15
2016-07-16T05:26:55.389Z,15
2016-07-16T05:27:54.689Z,15
2016-07-16T05:28:55.397Z,15
2016-07-16T05:29:55.416Z,15
2016-07-16T05:30:53.995Z,15
2016-07-16T05:31:56.118Z,15
2016-07-16T05:32:54.003Z,15
2016-07-16T05:33:54.716Z,15
2016-07-16T05:34:55.428Z,15
2016-07-16T05:35:55.833Z,15
2016-07-16T05:36:54.732Z,15
2016-07-16T05:37:54.027Z,15
2016-07-16T05:38:55.446Z,15
2016-07-16T05:39:55.449Z,15
2016-07-16T05:40:54.092Z,15
2016-07-16T05:41:54.824Z,15
2016-07-16T05:42:55.466Z,15
2016-07-16T05:43:56.178Z,15
2016-07-16T05:44:54.057Z,15
2016-07-16T05:45:54.789Z,15
2016-07-16T05:46:55.395Z,10
2016-07-16T05:47:55.494Z,10
2016-07-16T05:48:54.791Z,10
2016-07-16T05:49:55.502Z,10
2016-07-16T05:50:56.215Z,10
2016-07-16T05:51:55.513Z,10
2016-07-16T05:52:54.967Z,5
2016-07-16T05:53:54.820Z,5
2016-07-16T05:54:54.117Z,5
2016-07-16T05:55:56.138Z,10
2016-07-16T05:56:55.593Z,10
2016-07-16T05:57:54.936Z,10
2016-07-16T05:58:54.134Z,10
2016-07-16T05:59:55.599Z,15
2016-07-16T06:00:54.137Z,15
2016-07-16T06:01:54.917Z,15
2016-07-16T06:02:56.272Z,15
2016-07-16T06:03:55.567Z,20
2016-07-16T06:04:54.704Z,20
2016-07-16T06:05:55.574Z,20
2016-07-16T06:06:55.936Z,20
2016-07-16T06:07:54.969Z,25
2016-07-16T06:08:54.931Z,25
2016-07-16T06:09:56.413Z,25
2016-07-16T06:10:54.185Z,25
2016-07-16T06:11:54.898Z,20
2016-07-16T06:12:56.315Z,25
2016-07-16T06:13:54.907Z,25
2016-07-16T06:14:54.272Z,25
2016-07-16T06:15:55.978Z,25
2016-07-16T06:16:55.624Z,25
2016-07-16T06:17:56.540Z,25
2016-07-16T06:18:55.905Z,25
2016-07-16T06:19:54.876Z,25
2016-07-16T06:20:55.658Z,25
2016-07-16T06:21:54.946Z,25
2016-07-16T06:22:53.669Z,25
2016-07-16T06:23:55.659Z,25
2016-07-16T06:24:56.384Z,30
2016-07-16T06:25:56.596Z,35
2016-07-16T06:26:55.941Z,45
2016-07-16T06:27:54.980Z,45
2016-07-16T06:28:55.693Z,45
2016-07-16T06:29:55.087Z,45
2016-07-16T06:30:55.127Z,40
2016-07-16T06:31:55.696Z,45
2016-07-16T06:32:55.005Z,40
2016-07-16T06:33:55.001Z,40
2016-07-16T06:34:54.415Z,40
2016-07-16T06:35:55.770Z,45
2016-07-16T06:36:55.722Z,50
2016-07-16T06:37:55.125Z,55
2016-07-16T06:38:56.035Z,60
2016-07-16T06:39:57.676Z,60
2016-07-16T06:40:56.460Z,60
2016-07-16T06:41:57.231Z,70
2016-07-16T06:42:54.343Z,85
2016-07-16T06:43:55.054Z,165
2016-07-16T06:44:55.779Z,370
2016-07-16T06:45:55.776Z,415
2016-07-16T06:46:56.484Z,270
2016-07-16T06:47:55.789Z,205
2016-07-16T06:48:55.387Z,185
2016-07-16T06:49:55.803Z,115
2016-07-16T06:50:55.097Z,85
2016-07-16T06:51:55.236Z,65
2016-07-16T06:52:54.399Z,65
2016-07-16T06:53:54.400Z,70
2016-07-16T06:54:55.828Z,65
2016-07-16T06:55:55.828Z,60
2016-07-16T06:56:55.123Z,50
2016-07-16T06:57:54.482Z,40
2016-07-16T06:58:55.138Z,35
2016-07-16T06:59:55.386Z,35
2016-07-16T07:00:55.149Z,35
2016-07-16T07:01:55.864Z,35
2016-07-16T07:02:56.567Z,35
2016-07-16T07:03:54.453Z,40
2016-07-16T07:04:54.614Z,40
2016-07-16T07:05:55.168Z,40
2016-07-16T07:06:55.173Z,40
2016-07-16T07:07:53.772Z,45
2016-07-16T07:08:56.602Z,45
2016-07-16T07:09:56.613Z,45
2016-07-16T07:10:55.904Z,45
2016-07-16T07:11:55.201Z,45
2016-07-16T07:12:57.454Z,45
2016-07-16T07:13:55.972Z,45
2016-07-16T07:14:56.327Z,40
2016-07-16T07:15:55.226Z,40
2016-07-16T07:16:55.944Z,40
2016-07-16T07:17:55.939Z,40
2016-07-16T07:18:55.264Z,40
2016-07-16T07:19:55.243Z,35
2016-07-16T07:20:55.251Z,35
2016-07-16T07:21:54.553Z,35
2016-07-16T07:22:55.970Z,40
2016-07-16T07:23:58.390Z,40
2016-07-16T07:24:55.973Z,40
2016-07-16T07:25:55.165Z,40
2016-07-16T07:26:55.288Z,40
2016-07-16T07:27:54.587Z,40
2016-07-16T07:28:55.292Z,40
2016-07-16T07:29:55.995Z,45
2016-07-16T07:30:55.301Z,45
2016-07-16T07:31:55.309Z,45
2016-07-16T07:32:56.840Z,45
2016-07-16T07:33:55.315Z,45
2016-07-16T07:34:55.918Z,50
2016-07-16T07:35:55.318Z,50
2016-07-16T07:36:56.039Z,50
2016-07-16T07:37:55.336Z,55
2016-07-16T07:38:54.634Z,50
2016-07-16T07:39:56.099Z,50
2016-07-16T07:40:55.351Z,45
2016-07-16T07:41:55.353Z,45
2016-07-16T07:42:54.658Z,45
2016-07-16T07:43:55.368Z,45
2016-07-16T07:44:55.368Z,45
2016-07-16T07:45:56.357Z,45
2016-07-16T07:46:53.973Z,45
2016-07-16T07:47:55.383Z,40
2016-07-16T07:48:54.698Z,40
2016-07-16T07:49:55.407Z,40
2016-07-16T07:50:56.105Z,40
2016-07-16T07:51:54.701Z,45
2016-07-16T07:52:56.120Z,45
2016-07-16T07:53:54.710Z,50
2016-07-16T07:54:55.423Z,55
2016-07-16T07:55:54.718Z,55
2016-07-16T07:56:56.140Z,60
2016-07-16T07:57:55.443Z,60
2016-07-16T07:58:55.444Z,60
2016-07-16T07:59:56.865Z,60
2016-07-16T08:00:55.513Z,65
2016-07-16T08:01:55.455Z,65
2016-07-16T08:02:55.473Z,65
2016-07-16T08:03:55.468Z,65
2016-07-16T08:04:55.484Z,65
2016-07-16T08:05:54.771Z,65
2016-07-16T08:06:55.482Z,60
2016-07-16T08:07:57.962Z,55
2016-07-16T08:08:54.790Z,50
2016-07-16T08:09:56.700Z,45
2016-07-16T08:10:55.523Z,45
2016-07-16T08:11:54.814Z,45
2016-07-16T08:12:56.221Z,40
2016-07-16T08:13:55.529Z,40
2016-07-16T08:14:56.938Z,45
2016-07-16T08:15:54.819Z,45
2016-07-16T08:16:56.944Z,45
2016-07-16T08:17:55.540Z,45
2016-07-16T08:18:54.850Z,45
2016-07-16T08:19:55.581Z,40
2016-07-16T08:20:58.544Z,40
2016-07-16T08:21:55.560Z,40
2016-07-16T08:22:56.269Z,40
2016-07-16T08:23:55.567Z,40
2016-07-16T08:24:54.866Z,40
2016-07-16T08:25:56.280Z,40
2016-07-16T08:26:56.292Z,40
2016-07-16T08:27:55.588Z,40
2016-07-16T08:28:56.301Z,40
2016-07-16T08:29:57.243Z,40
2016-07-16T08:30:57.018Z,40
2016-07-16T08:31:56.836Z,40
2016-07-16T08:32:55.609Z,40
2016-07-16T08:33:55.622Z,35
2016-07-16T08:34:55.639Z,35
2016-07-16T08:35:56.331Z,35
2016-07-16T08:36:55.667Z,35
2016-07-16T08:37:55.654Z,40
2016-07-16T08:38:56.705Z,40
2016-07-16T08:39:55.659Z,40
2016-07-16T08:40:56.305Z,35
2016-07-16T08:41:55.011Z,35
2016-07-16T08:42:56.480Z,30
2016-07-16T08:43:55.679Z,30
2016-07-16T08:44:57.508Z,35
2016-07-16T08:45:54.979Z,40
2016-07-16T08:46:56.492Z,45
2016-07-16T08:47:54.991Z,45
2016-07-16T08:48:55.708Z,50
2016-07-16T08:49:55.709Z,55
2016-07-16T08:50:54.301Z,60
2016-07-16T08:51:55.813Z,65
2016-07-16T08:52:56.430Z,65
2016-07-16T08:53:57.410Z,65
2016-07-16T08:54:55.732Z,65
2016-07-16T08:55:57.145Z,65
2016-07-16T08:56:57.161Z,70
2016-07-16T08:57:57.268Z,80
2016-07-16T08:58:55.759Z,85
2016-07-16T08:59:56.466Z,80
2016-07-16T09:00:57.199Z,75
2016-07-16T09:01:54.363Z,70
2016-07-16T09:02:55.794Z,70
2016-07-16T09:03:56.547Z,70
2016-07-16T09:04:55.856Z,70
2016-07-16T09:05:56.509Z,75
2016-07-16T09:06:56.765Z,80
2016-07-16T09:07:55.823Z,85
2016-07-16T09:08:55.109Z,85
2016-07-16T09:09:55.876Z,90
2016-07-16T09:10:55.824Z,75
2016-07-16T09:11:56.616Z,65
2016-07-16T09:12:55.142Z,65
2016-07-16T09:13:55.394Z,65
2016-07-16T09:14:56.560Z,65
2016-07-16T09:15:57.838Z,65
2016-07-16T09:16:55.863Z,65
2016-07-16T09:17:55.168Z,65
2016-07-16T09:18:56.631Z,60
2016-07-16T09:19:56.585Z,60
2016-07-16T09:20:55.883Z,55
2016-07-16T09:21:56.605Z,55
2016-07-16T09:22:56.604Z,55
2016-07-16T09:23:56.718Z,50
2016-07-16T09:24:57.402Z,50
2016-07-16T09:25:56.618Z,50
2016-07-16T09:26:58.480Z,50
2016-07-16T09:27:55.917Z,45
2016-07-16T09:28:55.222Z,50
2016-07-16T09:29:55.926Z,50
2016-07-16T09:30:55.938Z,50
2016-07-16T09:31:57.357Z,45
2016-07-16T09:32:56.651Z,45
2016-07-16T09:33:55.242Z,45
2016-07-16T09:34:55.957Z,45
2016-07-16T09:35:57.137Z,45
2016-07-16T09:36:56.671Z,45
2016-07-16T09:37:57.413Z,45
2016-07-16T09:38:57.444Z,45
2016-07-16T09:39:56.276Z,50
2016-07-16T09:40:55.420Z,50
2016-07-16T09:41:57.511Z,50
2016-07-16T09:42:56.706Z,50
2016-07-16T09:43:57.422Z,50
2016-07-16T09:44:56.010Z,50
2016-07-16T09:45:57.425Z,50
2016-07-16T09:46:57.734Z,55
2016-07-16T09:47:56.026Z,50
2016-07-16T09:48:57.554Z,55
2016-07-16T09:49:56.744Z,60
2016-07-16T09:50:56.243Z,60
2016-07-16T09:51:55.336Z,60
2016-07-16T09:52:57.517Z,60
2016-07-16T09:53:56.060Z,65
2016-07-16T09:54:55.350Z,65
2016-07-16T09:55:54.662Z,65
2016-07-16T09:56:56.072Z,65
2016-07-16T09:57:57.683Z,65
2016-07-16T09:58:56.792Z,65
2016-07-16T09:59:57.293Z,65
2016-07-16T10:00:55.381Z,65
2016-07-16T10:01:56.155Z,70
2016-07-16T10:02:55.395Z,65
2016-07-16T10:03:56.251Z,65
2016-07-16T10:04:57.531Z,65
2016-07-16T10:05:56.124Z,70
2016-07-16T10:06:56.838Z,70
2016-07-16T10:07:55.431Z,70
2016-07-16T10:08:57.516Z,70
2016-07-16T10:09:55.446Z,70
2016-07-16T10:10:56.344Z,70
2016-07-16T10:11:56.863Z,70
2016-07-16T10:12:56.161Z,65
2016-07-16T10:13:56.166Z,65
2016-07-16T10:14:57.590Z,65
2016-07-16T10:15:56.178Z,65
2016-07-16T10:16:56.181Z,65
2016-07-16T10:17:56.892Z,65
2016-07-16T10:18:54.779Z,70
2016-07-16T10:19:56.633Z,70
2016-07-16T10:20:55.493Z,70
2016-07-16T10:21:56.202Z,70
2016-07-16T10:22:56.928Z,70
2016-07-16T10:23:57.951Z,70
2016-07-16T10:24:55.523Z,70
2016-07-16T10:25:56.226Z,70
2016-07-16T10:26:56.249Z,70
2016-07-16T10:27:56.981Z,70
2016-07-16T10:28:55.541Z,70
2016-07-16T10:29:56.262Z,70
2016-07-16T10:30:57.530Z,70
2016-07-16T10:31:56.980Z,75
2016-07-16T10:32:56.565Z,75
2016-07-16T10:33:57.684Z,70
2016-07-16T10:34:56.340Z,65
2016-07-16T10:35:56.284Z,65
2016-07-16T10:36:56.290Z,65
2016-07-16T10:37:55.588Z,65
2016-07-16T10:38:57.009Z,65
2016-07-16T10:39:56.320Z,65
2016-07-16T10:40:57.074Z,65
2016-07-16T10:41:56.421Z,65
2016-07-16T10:42:57.034Z,65
2016-07-16T10:43:57.340Z,65
2016-07-16T10:44:54.924Z,65
2016-07-16T10:45:58.480Z,65
2016-07-16T10:46:57.759Z,65
2016-07-16T10:47:57.063Z,65
2016-07-16T10:48:57.059Z,65
2016-07-16T10:49:57.773Z,60
2016-07-16T10:50:56.360Z,60
2016-07-16T10:51:55.663Z,60
2016-07-16T10:52:56.944Z,55
2016-07-16T10:53:54.968Z,60
2016-07-16T10:54:57.338Z,65
2016-07-16T10:55:57.102Z,75
2016-07-16T10:56:56.396Z,85
2016-07-16T10:57:57.106Z,70
2016-07-16T10:58:56.412Z,55
2016-07-16T10:59:57.829Z,50
2016-07-16T11:00:57.130Z,55
2016-07-16T11:01:56.427Z,60
2016-07-16T11:02:55.727Z,60
2016-07-16T11:03:57.178Z,65
2016-07-16T11:04:55.025Z,65
2016-07-16T11:05:56.637Z,70
2016-07-16T11:06:56.453Z,70
2016-07-16T11:07:56.454Z,70
2016-07-16T11:08:56.491Z,70
2016-07-16T11:09:57.186Z,70
2016-07-16T11:10:57.937Z,70
2016-07-16T11:11:56.478Z,65
2016-07-16T11:12:55.777Z,70
2016-07-16T11:13:55.784Z,70
2016-07-16T11:14:58.317Z,70
2016-07-16T11:15:56.513Z,70
2016-07-16T11:16:57.221Z,70
2016-07-16T11:17:57.925Z,65
2016-07-16T11:18:56.118Z,65
2016-07-16T11:19:56.524Z,65
2016-07-16T11:20:57.234Z,65
2016-07-16T11:21:57.240Z,65
2016-07-16T11:22:56.546Z,65
2016-07-16T11:23:55.843Z,65
2016-07-16T11:24:55.843Z,65
2016-07-16T11:25:57.561Z,65
2016-07-16T11:26:56.567Z,65
2016-07-16T11:27:57.168Z,65
2016-07-16T11:28:57.282Z,65
2016-07-16T11:29:56.025Z,65
2016-07-16T11:30:57.295Z,65
2016-07-16T11:31:55.890Z,65
2016-07-16T11:32:56.611Z,60
2016-07-16T11:33:57.311Z,60
2016-07-16T11:34:57.320Z,55
2016-07-16T11:35:56.628Z,55
2016-07-16T11:36:58.740Z,55
2016-07-16T11:37:57.339Z,55
2016-07-16T11:38:57.185Z,55
2016-07-16T11:39:55.934Z,55
2016-07-16T11:40:58.037Z,50
2016-07-16T11:41:58.113Z,50
2016-07-16T11:42:55.952Z,50
2016-07-16T11:43:56.665Z,55
2016-07-16T11:44:56.669Z,55
2016-07-16T11:45:55.968Z,55
2016-07-16T11:46:57.389Z,55
2016-07-16T11:47:58.145Z,55
2016-07-16T11:48:56.694Z,55
2016-07-16T11:49:56.991Z,60
2016-07-16T11:50:57.411Z,60
2016-07-16T11:51:58.085Z,60
2016-07-16T11:52:56.007Z,60
2016-07-16T11:53:57.525Z,60
2016-07-16T11:54:58.142Z,65
2016-07-16T11:55:57.438Z,65
2016-07-16T11:56:58.162Z,65
2016-07-16T11:57:56.039Z,65
2016-07-16T11:58:57.553Z,65
2016-07-16T11:59:55.339Z,70
2016-07-16T12:00:57.478Z,70
2016-07-16T12:01:57.469Z,75
2016-07-16T12:02:58.336Z,75
2016-07-16T12:03:57.480Z,75
2016-07-16T12:04:56.790Z,75
2016-07-16T12:05:57.501Z,75
2016-07-16T12:06:57.504Z,75
2016-07-16T12:07:56.799Z,75
2016-07-16T12:08:58.220Z,75
2016-07-16T12:09:58.367Z,70
2016-07-16T12:10:57.521Z,70
2016-07-16T12:11:57.524Z,70
2016-07-16T12:12:56.831Z,70
2016-07-16T12:13:59.299Z,65
2016-07-16T12:14:56.843Z,70
2016-07-16T12:15:56.156Z,70
2016-07-16T12:16:58.261Z,65
2016-07-16T12:17:57.562Z,70
2016-07-16T12:18:57.584Z,70
2016-07-16T12:19:57.571Z,70
2016-07-16T12:20:57.724Z,70
2016-07-16T12:21:56.165Z,75
2016-07-16T12:22:59.586Z,75
2016-07-16T12:23:56.892Z,75
2016-07-16T12:25:56.193Z,70
2016-07-16T12:26:56.918Z,70
2016-07-16T12:27:58.328Z,70
2016-07-16T12:28:56.931Z,70
2016-07-16T12:29:57.643Z,70
2016-07-16T12:30:56.932Z,70
2016-07-16T12:31:57.537Z,75
2016-07-16T12:32:58.357Z,70
2016-07-16T12:33:56.950Z,70
2016-07-16T12:34:57.658Z,70
2016-07-16T12:35:56.958Z,70
2016-07-16T12:36:57.675Z,70
2016-07-16T12:37:56.973Z,70
2016-07-16T12:38:57.685Z,75
2016-07-16T12:39:57.684Z,70
2016-07-16T12:40:56.985Z,70
2016-07-16T12:41:56.995Z,65
2016-07-16T12:42:58.058Z,65
2016-07-16T12:43:56.297Z,65
2016-07-16T12:44:57.764Z,60
2016-07-16T12:45:58.445Z,55
2016-07-16T12:46:58.075Z,55
2016-07-16T12:47:57.024Z,55
2016-07-16T12:48:57.740Z,60
2016-07-16T12:49:57.037Z,60
2016-07-16T12:50:57.047Z,60
2016-07-16T12:51:57.758Z,60
2016-07-16T12:52:56.349Z,60
2016-07-16T12:53:57.374Z,60
2016-07-16T12:55:11.240Z,60
2016-07-16T12:55:57.780Z,60
2016-07-16T12:56:58.493Z,65
2016-07-16T12:57:58.019Z,60
2016-07-16T12:58:57.796Z,60
2016-07-16T12:59:57.104Z,55
2016-07-16T13:00:56.401Z,50
2016-07-16T13:01:57.112Z,50
2016-07-16T13:02:55.703Z,50
2016-07-16T13:03:57.131Z,55
2016-07-16T13:04:58.742Z,60
2016-07-16T13:05:58.554Z,65
2016-07-16T13:06:57.856Z,65
2016-07-16T13:07:57.852Z,65
2016-07-16T13:08:56.447Z,65
2016-07-16T13:09:57.880Z,65
2016-07-16T13:10:57.162Z,65
2016-07-16T13:11:58.586Z,65
2016-07-16T13:12:58.586Z,65
2016-07-16T13:13:57.181Z,60
2016-07-16T13:14:57.892Z,60
2016-07-16T13:15:56.690Z,55
2016-07-16T13:16:58.614Z,55
2016-07-16T13:17:59.865Z,65
2016-07-16T13:18:57.211Z,65
2016-07-16T13:19:56.513Z,65
2016-07-16T13:20:57.928Z,65
2016-07-16T13:21:57.936Z,65
2016-07-16T13:22:57.235Z,65
2016-07-16T13:23:57.236Z,65
2016-07-16T13:24:57.953Z,65
2016-07-16T13:25:57.962Z,65
2016-07-16T13:26:57.607Z,65
2016-07-16T13:27:57.971Z,65
2016-07-16T13:28:59.482Z,65
2016-07-16T13:29:56.591Z,60
2016-07-16T13:30:58.186Z,65
2016-07-16T13:31:57.291Z,60
2016-07-16T13:32:57.297Z,65
2016-07-16T13:33:57.301Z,65
2016-07-16T13:34:56.595Z,65
2016-07-16T13:35:58.023Z,65
2016-07-16T13:36:58.026Z,60
2016-07-16T13:37:57.517Z,65
2016-07-16T13:38:57.336Z,65
2016-07-16T13:39:59.450Z,65
2016-07-16T13:40:58.756Z,65
2016-07-16T13:41:58.124Z,65
2016-07-16T13:42:56.647Z,60
2016-07-16T13:43:57.410Z,55
2016-07-16T13:44:58.120Z,55
2016-07-16T13:45:58.132Z,55
2016-07-16T13:46:57.385Z,55
2016-07-16T13:47:58.088Z,55
2016-07-16T13:48:58.310Z,50
2016-07-16T13:49:58.821Z,50
2016-07-16T13:50:57.398Z,45
2016-07-16T13:51:58.114Z,40
2016-07-16T13:52:56.707Z,40
2016-07-16T13:53:56.708Z,40
2016-07-16T13:54:56.722Z,45
2016-07-16T13:55:58.131Z,50
2016-07-16T13:56:58.151Z,55
2016-07-16T13:57:58.148Z,55
2016-07-16T13:58:58.157Z,60
2016-07-16T13:59:56.941Z,60
2016-07-16T14:00:57.456Z,60
2016-07-16T14:01:59.445Z,65
2016-07-16T14:02:57.468Z,65
2016-07-16T14:03:58.109Z,65
2016-07-16T14:04:58.195Z,60
2016-07-16T14:05:58.197Z,55
2016-07-16T14:06:58.214Z,55
2016-07-16T14:07:58.205Z,60
2016-07-16T14:08:58.219Z,65
2016-07-16T14:09:57.516Z,65
2016-07-16T14:10:58.274Z,70
2016-07-16T14:11:57.526Z,70
2016-07-16T14:12:59.506Z,75
2016-07-16T14:13:56.887Z,75
2016-07-16T14:14:58.293Z,75
2016-07-16T14:15:58.261Z,70
2016-07-16T14:16:56.849Z,70
2016-07-16T14:17:58.270Z,70
2016-07-16T14:18:57.569Z,70
2016-07-16T14:19:58.283Z,70
2016-07-16T14:20:58.292Z,70
2016-07-16T14:21:57.804Z,70
2016-07-16T14:22:58.304Z,70
2016-07-16T14:23:59.638Z,65
2016-07-16T14:24:57.609Z,65
2016-07-16T14:25:58.462Z,65
2016-07-16T14:26:56.916Z,65
2016-07-16T14:27:58.332Z,65